KALO/ALO METAR and TAF weather

Enter ICAO airport designator
Station Type Date Time Source
KALO METAR 2021/09/20 04:54 UTC NOAA

KALO 200454Z AUTO 16013KT 10SM CLR 24/17 A2987 RMK AO2 SLP106 T02390172


Station Type Date Time Source
KALO Decoded METAR 2021/09/20 04:54 UTC NOAA

WATERLOO MUNICIPAL AIRPORT, IA, United States (KALO) 42-33N 92-24W 264M
Sep 20, 2021 - 12:54 AM EDT / 2021.09.20 0454 UTC
Wind: from the SSE (160 degrees) at 15 MPH (13 KT):0
Visibility: 10 mile(s):0
Sky conditions: clear
Temperature: 75.0 F (23.9 C)
Dew Point: 63.0 F (17.2 C)
Relative Humidity: 66%
Pressure (altimeter): 29.87 in. Hg (1011 hPa)
ob: KALO 200454Z AUTO 16013KT 10SM CLR 24/17 A2987 RMK AO2 SLP106 T02390172
cycle: 5

Station Type Date Time Source
KALO TAF 2021/09/20 06:22 UTC NOAA

TAF KALO 200520Z 2006/2106 16011KT P6SM FEW200
FM201200 16011KT P6SM SCT008 BKN025
FM201600 17014KT P6SM BKN120
FM201900 20013KT P6SM VCSH BKN100
FM202300 29013KT 6SM TSRA OVC040CB
FM210200 31014KT 5SM -SHRA VCTS OVC015CB
FM210500 31012KT P6SM BKN020

Example: see airport list